Time;durP1;ratioP1;P1;durP2;ratioP2;P2;SDS_P1;SDS_P2;PMS_P1;PMS_P2;Temp;Humidity;BMP_temperature;BMP_pressure;BME280_temperature;BME280_humidity;BME280_pressure;Samples;Min_cycle;Max_cycle;Signal;HPM_P1;HPM_P2
2022/12/15 00:40:15;;;;;;;38.50;4.95;;;15.60;99.90;;;;;;5051266;28;20547;-74
2022/12/15 00:42:41;;;;;;;34.97;4.97;;;15.50;99.90;;;;;;5051341;28;20029;-74
2022/12/15 00:45:08;;;;;;;45.00;5.07;;;15.50;99.90;;;;;;5051304;28;20058;-74
2022/12/15 00:47:35;;;;;;;51.05;5.78;;;15.40;99.90;;;;;;5049886;28;20029;-75
2022/12/15 01:20:22;;;;;;;33.55;4.35;;;15.40;99.90;;;;;;5050933;28;20515;-74
2022/12/15 01:22:51;;;;;;;29.35;4.68;;;15.40;99.90;;;;;;5051026;28;20402;-75
2022/12/15 01:25:20;;;;;;;33.60;5.18;;;15.40;99.90;;;;;;5050956;28;20033;-74
2022/12/15 01:27:47;;;;;;;28.65;4.10;;;15.40;99.90;;;;;;5051204;28;20179;-75
2022/12/15 01:30:29;;;;;;;20.27;3.92;;;15.40;99.90;;;;;;5049286;28;20021;-75
2022/12/15 01:32:55;;;;;;;23.85;4.30;;;15.50;99.90;;;;;;5050836;28;20037;-74
2022/12/15 01:35:23;;;;;;;31.08;4.30;;;15.50;99.90;;;;;;5050982;28;20147;-74
2022/12/15 01:37:49;;;;;;;22.45;3.80;;;15.50;99.90;;;;;;5050714;28;20025;-75
2022/12/15 01:43:14;;;;;;;28.15;3.63;;;15.60;99.90;;;;;;5050922;28;20051;-76
2022/12/15 01:45:51;;;;;;;19.65;3.28;;;15.60;99.90;;;;;;5050729;28;20104;-76
2022/12/15 01:48:32;;;;;;;32.67;4.63;;;15.50;99.90;;;;;;5050958;28;20021;-75
2022/12/15 01:51:16;;;;;;;33.50;3.90;;;15.50;99.90;;;;;;5050420;28;20143;-76
2022/12/15 01:53:54;;;;;;;30.95;4.28;;;15.50;99.90;;;;;;5050456;28;20430;-75
2022/12/15 01:56:22;;;;;;;23.83;3.10;;;15.50;99.90;;;;;;5050714;28;20096;-75
2022/12/15 01:58:55;;;;;;;29.77;4.03;;;15.50;99.90;;;;;;5050333;28;20022;-75
2022/12/15 02:01:21;;;;;;;25.77;3.25;;;15.50;99.90;;;;;;5051039;28;20383;-75
2022/12/15 02:03:48;;;;;;;27.23;3.75;;;15.50;99.90;;;;;;5050842;28;20079;-75
2022/12/15 02:06:17;;;;;;;28.55;3.75;;;15.50;99.90;;;;;;5050225;28;20176;-71
2022/12/15 02:08:49;;;;;;;47.55;4.75;;;15.50;99.90;;;;;;5032560;28;20544;-75
2022/12/15 02:11:38;;;;;;;35.30;4.25;;;15.40;99.90;;;;;;5050393;28;20093;-75
2022/12/15 02:14:10;;;;;;;32.20;4.13;;;15.40;99.90;;;;;;5050288;28;20062;-75
2022/12/15 02:16:50;;;;;;;32.63;4.78;;;15.30;99.90;;;;;;5048710;28;20057;-74
2022/12/15 02:19:27;;;;;;;29.27;4.32;;;15.30;99.90;;;;;;5050458;28;20021;-75
2022/12/15 02:22:02;;;;;;;25.17;3.72;;;15.20;99.90;;;;;;5050457;28;20029;-75
2022/12/15 02:24:56;;;;;;;28.38;3.95;;;15.20;99.90;;;;;;5050473;28;20512;-76
2022/12/15 02:27:37;;;;;;;27.05;4.40;;;15.20;99.90;;;;;;5050178;28;20025;-75
2022/12/15 02:30:28;;;;;;;26.00;3.97;;;15.20;99.90;;;;;;5050502;28;20052;-77
2022/12/15 02:33:26;;;;;;;29.75;4.72;;;15.10;99.90;;;;;;5051841;28;20137;-75
2022/12/15 02:36:12;;;;;;;26.83;3.72;;;15.10;99.90;;;;;;5011951;28;20162;-75
2022/12/15 02:38:43;;;;;;;21.15;2.88;;;15.10;99.90;;;;;;5012097;28;20026;-75
2022/12/15 02:41:44;;;;;;;25.38;3.17;;;15.10;99.90;;;;;;5011953;28;20045;-75
2022/12/15 02:44:37;;;;;;;16.75;2.88;;;15.20;99.90;;;;;;4995340;28;20525;-75
2022/12/15 02:47:22;;;;;;;26.88;3.42;;;15.30;99.90;;;;;;4995004;28;20080;-75
2022/12/15 02:50:15;;;;;;;26.60;3.80;;;15.30;99.90;;;;;;5011567;28;20061;-75
2022/12/15 02:53:26;;;;;;;19.33;3.00;;;15.30;99.90;;;;;;5011362;28;20038;-75
2022/12/15 02:56:04;;;;;;;24.92;3.30;;;15.20;99.90;;;;;;4933742;29;20370;-75
2022/12/15 02:58:58;;;;;;;24.98;3.95;;;15.20;99.90;;;;;;4934117;29;20063;-75
2022/12/15 03:01:29;;;;;;;16.98;3.03;;;15.20;99.90;;;;;;4933639;29;20039;-75
2022/12/15 03:04:06;;;;;;;21.00;3.10;;;15.20;99.90;;;;;;4933113;29;20111;-75
2022/12/15 03:06:32;;;;;;;22.05;2.85;;;15.20;99.90;;;;;;4941673;29;20106;-74
2022/12/15 03:08:58;;;;;;;18.48;2.28;;;15.20;99.90;;;;;;4938994;29;20024;-72
2022/12/15 03:11:27;;;;;;;16.15;2.55;;;15.20;99.90;;;;;;4935879;29;20047;-75
2022/12/15 03:13:58;;;;;;;16.35;2.75;;;15.30;99.90;;;;;;4979846;28;20458;-74
2022/12/15 03:16:27;;;;;;;15.27;2.40;;;15.30;99.90;;;;;;4983252;28;20105;-74
2022/12/15 03:19:14;;;;;;;18.52;2.60;;;15.20;99.90;;;;;;4979418;28;20039;-71
2022/12/15 03:21:42;;;;;;;17.75;2.85;;;15.30;99.90;;;;;;4964805;28;20046;-72
2022/12/15 03:24:09;;;;;;;17.60;2.90;;;15.20;99.90;;;;;;4971867;28;20042;-76
2022/12/15 03:26:58;;;;;;;28.27;3.00;;;15.20;99.90;;;;;;4972264;28;20047;-76
2022/12/15 03:29:25;;;;;;;18.63;3.00;;;15.20;99.90;;;;;;4971841;28;20030;-76
2022/12/15 03:31:52;;;;;;;18.38;3.20;;;15.10;99.90;;;;;;4998396;28;20059;-76
2022/12/15 03:34:19;;;;;;;19.13;3.42;;;15.00;99.90;;;;;;5052507;28;20024;-75
2022/12/15 03:36:45;;;;;;;18.05;2.67;;;14.90;99.90;;;;;;5052817;28;20041;-75
2022/12/15 03:39:11;;;;;;;18.75;2.50;;;15.00;99.90;;;;;;5051097;28;20017;-75
2022/12/15 03:41:40;;;;;;;15.13;1.98;;;15.10;99.90;;;;;;5052551;28;20491;-76
2022/12/15 03:44:06;;;;;;;11.45;1.70;;;15.20;99.90;;;;;;5049801;28;20405;-77
2022/12/15 03:46:34;;;;;;;12.40;2.15;;;15.20;99.90;;;;;;5052428;28;20306;-75
2022/12/15 03:49:05;;;;;;;14.55;2.90;;;15.20;99.90;;;;;;5052561;28;20028;-76
2022/12/15 03:51:31;;;;;;;15.05;2.90;;;15.30;99.90;;;;;;5052360;28;20045;-76
2022/12/15 03:53:57;;;;;;;12.80;2.55;;;15.30;99.90;;;;;;5053037;28;20033;-75
2022/12/15 03:56:24;;;;;;;16.05;2.53;;;15.30;99.90;;;;;;5052379;28;20037;-74
2022/12/15 03:58:51;;;;;;;18.70;2.97;;;15.20;99.90;;;;;;5053530;28;20056;-75
2022/12/15 04:01:28;;;;;;;20.48;2.67;;;15.20;99.90;;;;;;5053857;28;20025;-76
2022/12/15 04:03:54;;;;;;;16.85;2.97;;;15.20;99.90;;;;;;5052996;28;20159;-76
2022/12/15 04:06:20;;;;;;;;;;;15.20;99.90;;;;;;5053360;28;20124;-76
2022/12/15 04:08:46;;;;;;;18.60;2.80;;;15.20;99.90;;;;;;5053164;28;20331;-75
2022/12/15 04:11:14;;;;;;;17.35;1.98;;;15.10;99.90;;;;;;5053177;28;20100;-76
2022/12/15 04:13:42;;;;;;;16.13;2.78;;;15.10;99.90;;;;;;5053282;28;20128;-76
2022/12/15 04:16:11;;;;;;;10.57;1.60;;;15.10;99.90;;;;;;5052858;28;20056;-75
2022/12/15 04:18:37;;;;;;;12.45;1.60;;;15.20;99.90;;;;;;5053485;28;20099;-75
2022/12/15 04:21:05;;;;;;;8.77;1.38;;;15.30;99.90;;;;;;5053189;28;20041;-75
2022/12/15 04:23:31;;;;;;;7.50;1.20;;;15.40;99.90;;;;;;5053490;28;20049;-75
2022/12/15 05:32:47;;;;;;;13.82;2.35;;;14.90;99.90;;;;;;5033191;28;20100;-74
2022/12/15 05:35:15;;;;;;;12.70;2.15;;;14.90;99.90;;;;;;5033276;28;20151;-75
2022/12/15 05:37:41;;;;;;;12.00;1.80;;;14.90;99.90;;;;;;5032882;28;20029;-75
2022/12/15 05:40:08;;;;;;;10.85;2.13;;;14.90;99.90;;;;;;5032788;28;20022;-75
2022/12/15 05:42:35;;;;;;;;;;;14.90;99.90;;;;;;5033384;28;20064;-75
2022/12/15 05:45:03;;;;;;;14.30;2.50;;;15.00;99.90;;;;;;5032707;28;19915;-76
2022/12/15 05:47:30;;;;;;;12.18;2.20;;;15.00;99.90;;;;;;5032659;28;20030;-75
2022/12/15 05:49:57;;;;;;;18.45;3.00;;;15.00;99.90;;;;;;5032370;28;20136;-75
2022/12/15 05:52:24;;;;;;;15.00;2.35;;;15.00;99.90;;;;;;5033157;28;20108;-75
2022/12/15 05:54:50;;;;;;;15.77;2.58;;;15.00;99.90;;;;;;5032571;28;20121;-76
2022/12/15 05:57:16;;;;;;;15.65;2.40;;;15.00;99.90;;;;;;5032223;28;20022;-75
2022/12/15 05:59:42;;;;;;;17.80;2.45;;;15.00;99.90;;;;;;5031972;28;20030;-75
2022/12/15 06:02:08;;;;;;;21.90;2.63;;;15.10;99.90;;;;;;5031790;28;20018;-75
2022/12/15 06:04:36;;;;;;;13.63;2.28;;;15.10;99.90;;;;;;5032546;28;20601;-75
2022/12/15 06:07:03;;;;;;;11.85;2.88;;;15.10;99.90;;;;;;5030993;28;20037;-75
2022/12/15 06:09:29;;;;;;;15.88;3.05;;;15.10;99.90;;;;;;5035545;28;20022;-77
2022/12/15 06:11:57;;;;;;;;;;;15.20;99.90;;;;;;5036443;28;20018;-76
2022/12/15 06:14:23;;;;;;;11.48;1.85;;;15.10;99.90;;;;;;5035683;28;19905;-77
2022/12/15 06:16:49;;;;;;;9.32;1.83;;;15.10;99.90;;;;;;5035925;28;20029;-77
2022/12/15 06:19:16;;;;;;;12.35;2.10;;;15.20;99.90;;;;;;5036319;28;20014;-74
2022/12/15 06:21:42;;;;;;;10.77;2.13;;;15.20;99.90;;;;;;5050629;28;20481;-76
2022/12/15 06:24:09;;;;;;;15.68;2.55;;;15.20;99.90;;;;;;5055849;28;20017;-76
2022/12/15 06:26:41;;;;;;;15.35;2.55;;;15.30;99.90;;;;;;5055465;28;20457;-76
2022/12/15 06:29:10;;;;;;;12.82;2.17;;;15.40;99.90;;;;;;5055050;28;20129;-76
2022/12/15 06:32:01;;;;;;;11.35;1.85;;;15.50;99.90;;;;;;5054734;28;20037;-77
2022/12/15 06:34:27;;;;;;;11.55;1.92;;;15.60;99.90;;;;;;5055218;28;20474;-76
2022/12/15 06:36:55;;;;;;;19.65;3.22;;;15.60;99.90;;;;;;5053531;28;20028;-76
2022/12/15 06:39:24;;;;;;;14.48;2.28;;;15.70;99.90;;;;;;5054885;28;20017;-76
2022/12/15 06:41:50;;;;;;;15.23;2.20;;;15.70;99.90;;;;;;5054684;28;20035;-77
2022/12/15 06:44:19;;;;;;;9.90;2.08;;;15.70;99.90;;;;;;5054491;28;20055;-77
2022/12/15 06:46:45;;;;;;;11.38;2.10;;;15.80;99.90;;;;;;5054165;28;20116;-76
2022/12/15 06:49:17;;;;;;;14.68;2.47;;;15.90;99.90;;;;;;5053282;28;20021;-77
2022/12/15 06:51:45;;;;;;;16.90;2.50;;;16.00;99.90;;;;;;5053375;28;20044;-77
2022/12/15 06:54:11;;;;;;;12.30;2.13;;;16.20;99.90;;;;;;5054390;28;20025;-77
2022/12/15 06:56:38;;;;;;;10.63;1.92;;;16.30;99.90;;;;;;5054563;28;20025;-74
2022/12/15 06:59:05;;;;;;;;;;;16.40;99.90;;;;;;5053621;28;20120;-81
2022/12/15 07:01:31;;;;;;;9.45;2.15;;;16.40;99.90;;;;;;5054060;28;20264;-74
2022/12/15 07:04:01;;;;;;;13.25;2.53;;;16.40;99.90;;;;;;5053516;28;20017;-71
2022/12/15 07:06:33;;;;;;;16.55;3.13;;;16.40;99.90;;;;;;5053629;28;20029;-72
2022/12/15 07:08:59;;;;;;;19.13;2.70;;;16.40;99.90;;;;;;5053841;28;20454;-71
2022/12/15 07:11:25;;;;;;;19.95;3.80;;;16.40;99.90;;;;;;5054236;28;20020;-72
2022/12/15 07:13:52;;;;;;;19.38;3.25;;;16.50;99.90;;;;;;5052114;28;20029;-71
2022/12/15 07:16:20;;;;;;;9.07;2.30;;;16.40;99.90;;;;;;5053753;28;20420;-72
2022/12/15 07:18:46;;;;;;;25.38;3.40;;;16.40;99.90;;;;;;5053669;28;20104;-72
2022/12/15 07:21:13;;;;;;;22.67;4.80;;;16.50;99.90;;;;;;5054432;28;20116;-71
2022/12/15 07:23:40;;;;;;;24.90;4.43;;;16.50;99.90;;;;;;5053127;28;20492;-72
2022/12/15 07:26:08;;;;;;;20.00;3.85;;;16.60;99.90;;;;;;5054060;28;20025;-71
2022/12/15 07:28:36;;;;;;;17.90;3.53;;;16.60;99.90;;;;;;5052189;28;20430;-72
2022/12/15 07:31:07;;;;;;;20.42;3.90;;;16.60;99.90;;;;;;5054098;28;20017;-71
2022/12/15 07:33:35;;;;;;;22.58;3.28;;;16.60;99.90;;;;;;5054230;28;20457;-71
2022/12/15 07:36:04;;;;;;;20.70;3.75;;;16.50;99.90;;;;;;5054088;28;20059;-71
2022/12/15 07:38:30;;;;;;;26.80;4.53;;;16.60;99.90;;;;;;5054225;28;20025;-72
2022/12/15 07:41:01;;;;;;;28.42;4.38;;;16.60;99.90;;;;;;5053995;28;20492;-72
2022/12/15 07:43:29;;;;;;;26.20;4.07;;;16.70;99.90;;;;;;5052156;28;20147;-73
2022/12/15 07:45:58;;;;;;;25.77;4.00;;;16.70;99.90;;;;;;5053498;28;20028;-73
2022/12/15 07:48:26;;;;;;;26.85;4.63;;;16.70;99.90;;;;;;5052163;28;20090;-71
2022/12/15 07:50:56;;;;;;;20.50;3.90;;;16.80;99.90;;;;;;5052835;28;20053;-71
2022/12/15 07:53:23;;;;;;;29.92;4.68;;;16.90;99.90;;;;;;5053174;28;20021;-75
2022/12/15 07:55:57;;;;;;;23.73;4.03;;;16.90;99.90;;;;;;5053507;28;20512;-72
2022/12/15 07:58:27;;;;;;;30.05;4.78;;;17.10;99.90;;;;;;5053282;28;20118;-71
2022/12/15 08:01:03;;;;;;;27.23;4.82;;;17.30;99.90;;;;;;5053279;28;20086;-73
2022/12/15 08:03:31;;;;;;;27.98;5.80;;;17.40;99.90;;;;;;5036494;28;20381;-72
2022/12/15 08:06:03;;;;;;;33.67;4.88;;;17.20;99.90;;;;;;5051814;28;20029;-72
2022/12/15 08:08:29;;;;;;;30.88;4.82;;;17.30;99.90;;;;;;5051661;28;20501;-72
2022/12/15 08:10:56;;;;;;;33.05;5.03;;;17.40;99.90;;;;;;5052804;28;20064;-72
2022/12/15 08:13:22;;;;;;;;;;;17.80;99.90;;;;;;5053925;28;20029;-71
2022/12/15 08:15:54;;;;;;;23.80;4.20;;;18.20;99.90;;;;;;5053513;28;20340;-73
2022/12/15 08:18:21;;;;;;;35.97;5.30;;;18.40;99.90;;;;;;5051752;28;20055;-72
2022/12/15 08:20:47;;;;;;;30.15;4.50;;;18.60;99.90;;;;;;5053299;28;20496;-73
2022/12/15 08:23:13;;;;;;;33.53;5.10;;;18.60;99.90;;;;;;5052704;28;20021;-72
2022/12/15 08:25:39;;;;;;;26.60;4.93;;;18.80;99.90;;;;;;5053493;28;20033;-72
2022/12/15 08:28:06;;;;;;;37.85;5.95;;;19.10;99.90;;;;;;5052832;28;20485;-72
2022/12/15 08:30:33;;;;;;;31.92;5.25;;;19.40;99.90;;;;;;5051884;28;20037;-72
2022/12/15 08:33:00;;;;;;;29.13;6.13;;;19.70;99.90;;;;;;5034921;28;20029;-74
2022/12/15 08:35:28;;;;;;;29.17;5.03;;;19.90;99.90;;;;;;5052698;28;20033;-72
2022/12/15 08:37:54;;;;;;;25.90;5.20;;;20.00;99.90;;;;;;5052612;28;20127;-72
2022/12/15 08:40:20;;;;;;;28.30;5.47;;;20.10;99.90;;;;;;5052528;28;20131;-71
2022/12/15 08:42:46;;;;;;;26.98;5.10;;;20.00;99.90;;;;;;5051125;28;20025;-71
2022/12/15 08:45:13;;;;;;;27.63;5.93;;;20.00;99.90;;;;;;5052448;28;20083;-73
2022/12/15 08:47:39;;;;;;;30.52;5.78;;;19.90;99.90;;;;;;5051756;28;20024;-70
2022/12/15 08:50:07;;;;;;;31.27;5.15;;;20.00;99.90;;;;;;5048874;28;20052;-71
2022/12/15 08:52:34;;;;;;;22.48;5.05;;;19.90;99.90;;;;;;5051558;28;20057;-70
2022/12/15 08:55:00;;;;;;;32.65;8.38;;;20.00;99.90;;;;;;5051673;28;20073;-71
2022/12/15 08:57:26;;;;;;;30.38;9.27;;;20.00;99.90;;;;;;5051742;28;20025;-70
2022/12/15 08:59:53;;;;;;;35.38;11.15;;;20.00;99.90;;;;;;5051451;28;20077;-71
2022/12/15 09:02:19;;;;;;;29.45;8.00;;;19.90;99.90;;;;;;5052299;28;20020;-71
2022/12/15 09:04:45;;;;;;;32.45;7.68;;;19.90;99.90;;;;;;5050640;28;20025;-69
2022/12/15 09:07:12;;;;;;;28.20;5.90;;;20.00;99.90;;;;;;5052022;28;20500;-71
2022/12/15 09:09:38;;;;;;;30.02;6.70;;;19.90;99.90;;;;;;5052130;28;20021;-70
2022/12/15 09:12:05;;;;;;;24.10;5.63;;;20.20;99.90;;;;;;5051897;28;20029;-73
2022/12/15 09:14:31;;;;;;;29.08;5.05;;;20.10;99.90;;;;;;5051892;28;20108;-70
2022/12/15 09:16:57;;;;;;;33.50;6.25;;;20.00;99.90;;;;;;5049692;28;20029;-71
2022/12/15 09:19:24;;;;;;;31.48;4.80;;;20.10;99.90;;;;;;5049963;28;20120;-71
2022/12/15 09:21:50;;;;;;;30.52;4.70;;;20.10;99.90;;;;;;5051667;28;20123;-71
2022/12/15 09:24:16;;;;;;;27.27;4.00;;;20.10;99.90;;;;;;5051666;28;20017;-71
2022/12/15 09:26:43;;;;;;;27.83;4.88;;;20.20;99.90;;;;;;5051754;28;20025;-71
2022/12/15 09:29:13;;;;;;;27.65;4.63;;;20.20;99.90;;;;;;5052076;28;20044;-72
2022/12/15 09:31:43;;;;;;;19.30;4.38;;;20.40;99.90;;;;;;5051954;28;20418;-72
2022/12/15 09:34:14;;;;;;;23.92;4.40;;;20.60;99.90;;;;;;5051422;28;20025;-72
2022/12/15 09:36:40;;;;;;;21.30;4.15;;;20.70;99.90;;;;;;5051450;28;20116;-71
2022/12/15 09:39:10;;;;;;;;;;;20.70;99.90;;;;;;5052121;28;20032;-71
2022/12/15 09:41:38;;;;;;;24.15;5.00;;;20.80;99.90;;;;;;5051312;28;19905;-71
2022/12/15 09:44:17;;;;;;;22.23;4.53;;;20.90;99.90;;;;;;5053720;28;20033;-72
2022/12/15 09:47:15;;;;;;;29.48;4.80;;;21.20;99.90;;;;;;5055710;28;20029;-71
2022/12/15 09:49:52;;;;;;;27.17;5.20;;;21.20;99.90;;;;;;5054520;28;20053;-71
2022/12/15 09:52:21;;;;;;;23.83;4.15;;;21.30;99.90;;;;;;5055173;28;20025;-71
2022/12/15 09:54:47;;;;;;;20.40;4.60;;;21.30;99.90;;;;;;5054904;28;20037;-71
2022/12/15 09:57:26;;;;;;;21.17;3.60;;;21.10;99.90;;;;;;5054834;28;20057;-71
2022/12/15 10:00:09;;;;;;;23.90;3.75;;;21.20;99.90;;;;;;5053649;28;20112;-71
2022/12/15 10:03:12;;;;;;;28.20;5.03;;;21.00;99.90;;;;;;5054946;28;20045;-70
2022/12/15 10:06:05;;;;;;;21.38;4.25;;;20.90;99.90;;;;;;5054556;28;20025;-70
2022/12/15 10:08:35;;;;;;;21.92;3.47;;;21.20;99.90;;;;;;5054823;28;20025;-69
2022/12/15 10:11:16;;;;;;;26.20;3.88;;;21.20;99.90;;;;;;5054905;28;20111;-69
2022/12/15 10:13:58;;;;;;;23.48;3.97;;;21.10;99.90;;;;;;5054932;28;20116;-72
2022/12/15 10:16:30;;;;;;;22.60;4.28;;;21.00;99.90;;;;;;5055009;28;20079;-70
2022/12/15 10:19:15;;;;;;;26.25;5.10;;;21.20;99.90;;;;;;5053233;28;20075;-71
2022/12/15 10:21:41;;;;;;;26.08;5.07;;;21.20;99.90;;;;;;5054977;28;20033;-70
2022/12/15 10:24:21;;;;;;;27.70;4.60;;;21.30;99.90;;;;;;5054432;28;20311;-69
2022/12/15 10:27:12;;;;;;;24.00;5.28;;;21.40;99.90;;;;;;5054732;28;20453;-70
2022/12/15 10:29:46;;;;;;;26.90;4.20;;;21.20;99.90;;;;;;5043686;28;20572;-70
2022/12/15 10:32:45;;;;;;;21.10;5.15;;;21.40;99.90;;;;;;5054444;28;20177;-70
2022/12/15 10:35:17;;;;;;;25.73;4.15;;;21.50;99.90;;;;;;5054137;28;20068;-70
2022/12/15 10:37:43;;;;;;;22.60;3.80;;;21.10;99.90;;;;;;5052874;28;20029;-70
2022/12/15 10:40:16;;;;;;;23.05;6.03;;;21.10;99.90;;;;;;5054213;28;20021;-70
2022/12/15 10:42:48;;;;;;;19.92;3.40;;;21.20;99.90;;;;;;5054964;28;20055;-69
2022/12/15 10:45:38;;;;;;;25.35;4.20;;;21.20;99.90;;;;;;5053309;28;20108;-69
2022/12/15 10:48:05;;;;;;;24.25;4.93;;;21.30;99.90;;;;;;5046272;28;20056;-70
2022/12/15 10:50:39;;;;;;;24.60;4.53;;;21.30;99.90;;;;;;5036018;28;20061;-69
2022/12/15 10:53:08;;;;;;;21.00;4.70;;;21.30;99.90;;;;;;5053846;28;20028;-71
2022/12/15 10:55:41;;;;;;;21.52;4.90;;;21.40;99.90;;;;;;5053983;28;20033;-72
2022/12/15 10:58:30;;;;;;;22.90;4.70;;;21.50;99.90;;;;;;5054611;28;20084;-70
2022/12/15 11:01:32;;;;;;;27.52;4.78;;;21.50;99.90;;;;;;5054503;28;20151;-71
2022/12/15 11:04:00;;;;;;;21.80;4.05;;;21.60;99.90;;;;;;5053941;28;20029;-72
2022/12/15 11:06:35;;;;;;;25.88;4.22;;;21.50;99.90;;;;;;5053824;28;20036;-70
2022/12/15 11:09:25;;;;;;;26.03;4.53;;;21.50;99.90;;;;;;5053117;28;20124;-69
2022/12/15 11:14:47;;;;;;;23.85;4.78;;;21.40;99.90;;;;;;5052173;28;20048;-70
2022/12/15 11:17:19;;;;;;;21.33;4.15;;;21.30;99.90;;;;;;5052750;28;20485;-69
2022/12/15 11:20:05;;;;;;;24.85;4.90;;;21.20;99.90;;;;;;5053533;28;20497;-68
2022/12/15 11:22:44;;;;;;;29.67;4.50;;;21.20;99.90;;;;;;5054118;28;20029;-68
2022/12/15 11:25:14;;;;;;;28.85;4.80;;;21.30;99.90;;;;;;5053948;28;20025;-69
2022/12/15 11:27:44;;;;;;;26.63;4.40;;;21.20;99.90;;;;;;5053955;28;20469;-69
2022/12/15 11:30:14;;;;;;;20.63;4.18;;;21.20;99.90;;;;;;5052401;28;20115;-69
2022/12/15 11:32:52;;;;;;;22.50;4.53;;;21.20;99.90;;;;;;5052380;28;20033;-70
2022/12/15 11:35:25;;;;;;;23.85;4.32;;;21.40;99.90;;;;;;5051684;28;20124;-70
2022/12/15 11:38:11;;;;;;;20.67;4.00;;;21.30;99.90;;;;;;5053691;28;20166;-69
2022/12/15 11:40:42;;;;;;;25.17;4.18;;;21.40;99.90;;;;;;5012945;28;20032;-69
2022/12/15 11:43:26;;;;;;;26.80;4.32;;;21.40;99.90;;;;;;5051229;28;20492;-69
2022/12/15 11:46:24;;;;;;;29.60;4.82;;;21.40;99.90;;;;;;5053122;28;20082;-69
2022/12/15 11:49:24;;;;;;;27.48;4.93;;;21.40;99.90;;;;;;5052501;28;20044;-69
2022/12/15 11:51:58;;;;;;;30.77;5.18;;;21.60;99.90;;;;;;5052888;28;20032;-71
2022/12/15 11:54:39;;;;;;;19.08;4.40;;;21.60;99.90;;;;;;5053250;28;20354;-68
2022/12/15 11:57:24;;;;;;;24.58;4.38;;;21.70;99.90;;;;;;5052844;28;20044;-68
2022/12/15 12:00:08;;;;;;;17.98;3.67;;;21.70;99.90;;;;;;5051287;28;20069;-71
2022/12/15 12:02:58;;;;;;;18.45;3.90;;;21.60;99.90;;;;;;5052310;28;20111;-71
2022/12/15 12:05:52;;;;;;;20.48;3.92;;;21.70;99.90;;;;;;5029618;28;20042;-71
2022/12/15 12:08:52;;;;;;;22.00;3.47;;;21.60;99.90;;;;;;5030207;28;20164;-70
2022/12/15 12:11:31;;;;;;;24.05;4.00;;;21.70;99.90;;;;;;5013755;28;20026;-71
2022/12/15 12:14:31;;;;;;;19.70;3.75;;;21.60;99.90;;;;;;5029772;28;20128;-71
2022/12/15 12:17:25;;;;;;;18.67;3.58;;;21.80;99.90;;;;;;5029671;28;20053;-71
2022/12/15 12:19:58;;;;;;;20.92;4.53;;;21.60;99.90;;;;;;5030771;28;20057;-71
2022/12/15 12:22:36;;;;;;;14.43;3.25;;;21.50;99.90;;;;;;5031366;28;20025;-70
2022/12/15 12:25:20;;;;;;;21.98;4.78;;;21.50;99.90;;;;;;5030897;28;20454;-71
2022/12/15 12:27:57;;;;;;;16.70;3.22;;;21.50;99.90;;;;;;5029867;28;20382;-72
2022/12/15 12:30:28;;;;;;;21.20;3.65;;;21.60;99.90;;;;;;5030871;28;20362;-72
2022/12/15 12:33:02;;;;;;;16.38;3.35;;;21.70;99.90;;;;;;5030499;28;20466;-71
2022/12/15 12:35:41;;;;;;;12.90;2.97;;;21.70;99.90;;;;;;5034286;28;20545;-71
2022/12/15 12:38:12;;;;;;;24.92;3.35;;;21.60;99.90;;;;;;5051649;28;20074;-71
2022/12/15 12:40:58;;;;;;;17.17;3.30;;;21.70;99.90;;;;;;5052768;28;20033;-72
2022/12/15 12:43:31;;;;;;;15.73;3.25;;;21.80;99.90;;;;;;5052612;28;20044;-71
2022/12/15 12:46:24;;;;;;;14.48;2.95;;;21.90;99.90;;;;;;5051813;28;20033;-71
2022/12/15 12:49:05;;;;;;;14.43;3.60;;;22.00;99.90;;;;;;5051345;28;20103;-71
2022/12/15 12:51:37;;;;;;;15.05;3.53;;;22.00;99.90;;;;;;5052059;28;20049;-71
2022/12/15 12:54:35;;;;;;;13.32;2.92;;;22.00;99.90;;;;;;5053064;28;20021;-71
2022/12/15 12:57:40;;;;;;;17.63;2.72;;;21.90;99.90;;;;;;5052496;28;20132;-71
2022/12/15 13:00:20;;;;;;;17.33;2.93;;;22.00;99.90;;;;;;5053092;28;20481;-71
2022/12/15 13:02:52;;;;;;;17.10;2.90;;;22.00;99.90;;;;;;5052248;28;20263;-71
2022/12/15 13:05:27;;;;;;;20.88;3.72;;;22.20;99.90;;;;;;5051318;28;20021;-71
2022/12/15 13:08:18;;;;;;;21.80;3.80;;;22.00;99.90;;;;;;5052350;28;20040;-72
2022/12/15 13:10:47;;;;;;;18.27;3.72;;;22.20;99.90;;;;;;5053146;28;20021;-71
2022/12/15 13:13:36;;;;;;;23.15;3.80;;;22.30;99.90;;;;;;5053287;28;20021;-71
2022/12/15 13:16:25;;;;;;;18.02;3.67;;;22.30;99.90;;;;;;5050605;28;20037;-65
2022/12/15 13:19:08;;;;;;;22.52;4.03;;;22.40;99.90;;;;;;5052857;28;20029;-72
2022/12/15 13:21:47;;;;;;;19.15;3.58;;;22.30;99.90;;;;;;5053178;28;20032;-71
2022/12/15 13:24:56;;;;;;;21.17;3.83;;;22.30;99.90;;;;;;5053217;28;20025;-70
2022/12/15 13:27:22;;;;;;;20.20;3.30;;;22.40;99.90;;;;;;5035455;28;20036;-71
2022/12/15 13:30:04;;;;;;;19.83;3.88;;;22.40;99.90;;;;;;5052832;28;20462;-71
2022/12/15 13:32:51;;;;;;;21.17;3.45;;;22.40;99.90;;;;;;5053426;28;20040;-71
2022/12/15 13:35:25;;;;;;;22.13;3.70;;;22.40;99.90;;;;;;5053175;28;20036;-71
2022/12/15 13:37:51;;;;;;;18.52;3.42;;;22.30;99.90;;;;;;5052991;28;20025;-71
2022/12/15 13:40:32;;;;;;;14.23;3.40;;;22.30;99.90;;;;;;5052704;28;20021;-71
2022/12/15 13:43:27;;;;;;;15.88;3.67;;;22.30;99.90;;;;;;5052569;28;20064;-71
2022/12/15 13:46:08;;;;;;;21.20;4.03;;;22.40;99.90;;;;;;5052555;28;20067;-70
2022/12/15 13:48:37;;;;;;;16.85;3.60;;;22.30;99.90;;;;;;5052791;28;20032;-71
2022/12/15 13:51:21;;;;;;;11.10;2.80;;;22.20;99.90;;;;;;5052283;28;20049;-70
2022/12/15 13:53:56;;;;;;;12.55;3.13;;;22.10;99.90;;;;;;5050843;28;20075;-71
2022/12/15 13:56:45;;;;;;;11.57;2.60;;;22.00;99.90;;;;;;5052973;28;20033;-70
2022/12/15 13:59:29;;;;;;;8.90;1.75;;;22.10;99.90;;;;;;5051312;28;20029;-70
2022/12/15 14:01:57;;;;;;;8.85;1.73;;;22.00;99.90;;;;;;5052467;28;20025;-71
2022/12/15 14:04:23;;;;;;;8.13;1.40;;;21.90;99.90;;;;;;5052650;28;20102;-70
2022/12/15 14:07:02;;;;;;;5.53;1.40;;;21.80;99.90;;;;;;5052331;28;20061;-71
2022/12/15 14:09:37;;;;;;;9.57;1.45;;;21.80;99.90;;;;;;5052781;28;20107;-70
2022/12/15 14:12:07;;;;;;;7.03;1.53;;;21.90;99.90;;;;;;5051949;28;20033;-70
2022/12/15 14:14:36;;;;;;;7.70;1.40;;;22.00;99.90;;;;;;5051297;28;20270;-71
2022/12/15 14:17:08;;;;;;;5.85;1.33;;;21.90;99.90;;;;;;5052589;28;20484;-70
2022/12/15 14:19:42;;;;;;;5.32;1.38;;;21.70;99.90;;;;;;5052959;28;20017;-71
2022/12/15 14:22:28;;;;;;;8.20;1.55;;;21.60;99.90;;;;;;5052730;28;20024;-71
2022/12/15 14:25:01;;;;;;;9.35;1.40;;;21.50;99.90;;;;;;5052932;28;20104;-71
2022/12/15 14:27:29;;;;;;;8.65;1.23;;;21.30;99.90;;;;;;5052331;28;20021;-71
2022/12/15 14:30:15;;;;;;;7.00;1.60;;;21.20;99.90;;;;;;5055652;28;20174;-70
2022/12/15 14:32:43;;;;;;;6.47;1.60;;;21.20;99.90;;;;;;5056111;28;20377;-71
2022/12/15 14:35:23;;;;;;;5.50;1.02;;;21.20;99.90;;;;;;5047062;28;20070;-71
2022/12/15 14:37:51;;;;;;;9.00;1.27;;;21.10;99.90;;;;;;5045509;28;20116;-71
2022/12/15 14:40:18;;;;;;;12.02;1.40;;;21.10;99.90;;;;;;5046392;28;20017;-70
2022/12/15 14:42:46;;;;;;;8.00;1.30;;;21.10;99.90;;;;;;5043750;28;20028;-71
2022/12/15 14:45:26;;;;;;;9.75;1.58;;;20.90;99.90;;;;;;5047017;28;20128;-69
2022/12/15 14:47:59;;;;;;;7.22;1.45;;;20.90;99.90;;;;;;5038546;28;20072;-66
2022/12/15 14:50:26;;;;;;;8.95;1.27;;;20.90;99.90;;;;;;5046023;28;20051;-70
2022/12/15 14:52:56;;;;;;;;;;;20.90;99.90;;;;;;5043922;28;20021;-71
2022/12/15 14:55:22;;;;;;;9.27;1.70;;;20.70;99.90;;;;;;5042757;28;20364;-66
2022/12/15 14:57:52;;;;;;;7.80;1.42;;;20.60;99.90;;;;;;5043049;28;20026;-72
2022/12/15 15:00:31;;;;;;;8.60;1.45;;;20.50;99.90;;;;;;5043302;28;20044;-72
2022/12/15 15:03:20;;;;;;;5.38;1.20;;;20.40;99.90;;;;;;5043914;28;20022;-66
2022/12/15 15:05:52;;;;;;;6.45;1.48;;;20.40;99.90;;;;;;5044563;28;20074;-66
2022/12/15 15:08:44;;;;;;;9.45;1.65;;;20.20;99.90;;;;;;5035091;28;20180;-64
2022/12/15 15:11:30;;;;;;;10.13;1.40;;;20.10;99.90;;;;;;5035230;28;20087;-64
2022/12/15 15:14:02;;;;;;;9.68;2.28;;;20.10;99.90;;;;;;5035197;28;20033;-70
2022/12/15 15:16:28;;;;;;;11.85;1.48;;;20.00;99.90;;;;;;5035025;28;20104;-70
2022/12/15 15:18:56;;;;;;;11.40;2.00;;;19.90;99.90;;;;;;5034740;28;20049;-70
2022/12/15 15:21:25;;;;;;;9.10;1.90;;;19.80;99.90;;;;;;5034926;28;20665;-70
2022/12/15 15:24:09;;;;;;;8.82;1.50;;;19.80;99.90;;;;;;5034836;28;20025;-69
2022/12/15 15:26:38;;;;;;;8.20;1.90;;;19.70;99.90;;;;;;5035332;28;20025;-69
2022/12/15 15:29:35;;;;;;;10.50;1.77;;;19.70;99.90;;;;;;5035163;28;20473;-69
2022/12/15 15:32:15;;;;;;;9.52;1.80;;;19.50;99.90;;;;;;5034770;28;20100;-69
2022/12/15 15:34:42;;;;;;;12.77;1.73;;;19.50;99.90;;;;;;5034208;28;20040;-69
2022/12/15 15:37:20;;;;;;;13.38;2.20;;;19.40;99.90;;;;;;5034670;28;20029;-67